Mitchells, Virginia
Current Conditions -  °F | °C
As of 11:15 PM on Tuesday 27 Jan 2015 (Local Time) from KOMH Reporting Station
Overcast Overcast  
Wind Chill: 32°   Ceiling: 8000
Heat Index: 32°   Visibility: 10mi
Dew Point: 19°   Wind: 0mph
Humidity: 60%   Direction: NA
Pressure: 29.97"   Gusts: NA
Location:  38.38°N, 78.03°W
Report Text: KOMH 280415Z AUTO 00000KT 10SM OVC080 00/M07 A2997 RMK AO2
Loading
Personal Weather Stations






























Interactive Weather Map New forecast layout! Learn more

10-Day Weather Forecast

Advertisements
Track Severe Weather on mobile